Time;durP1;ratioP1;P1;durP2;ratioP2;P2;SDS_P1;SDS_P2;PMS_P1;PMS_P2;Temp;Humidity;BMP_temperature;BMP_pressure;BME280_temperature;BME280_humidity;BME280_pressure;Samples;Min_cycle;Max_cycle;Signal;HPM_P1;HPM_P2
2021/01/25 00:01:41;;;;;;;23.10;12.07;;;;;;;0.60;71.50;97188.75;118627;1150;65121;-78
2021/01/25 00:04:07;;;;;;;27.60;13.20;;;;;;;0.58;71.51;97181.89;118856;1150;65146;-76
2021/01/25 00:06:34;;;;;;;22.80;11.03;;;;;;;0.57;71.80;97185.46;119116;1150;65129;-77
2021/01/25 00:09:00;;;;;;;19.90;10.67;;;;;;;0.56;71.32;97171.52;119258;1150;65140;-77
2021/01/25 00:11:26;;;;;;;18.50;10.90;;;;;;;0.58;71.27;97174.03;119235;1150;65197;-77
2021/01/25 00:13:53;;;;;;;21.70;11.83;;;;;;;0.56;71.75;97179.38;119212;1150;65211;-78
2021/01/25 00:16:19;;;;;;;26.03;14.30;;;;;;;0.53;71.57;97183.96;119270;1150;65111;-78
2021/01/25 00:18:45;;;;;;;23.13;14.20;;;;;;;0.51;71.55;97175.33;119281;1150;65118;-77
2021/01/25 00:21:12;;;;;;;26.63;14.27;;;;;;;0.52;71.48;97177.01;119253;1150;65124;-76
2021/01/25 00:23:38;;;;;;;23.20;12.85;;;;;;;0.51;71.54;97175.33;118960;1150;65226;-76
2021/01/25 00:26:04;;;;;;;21.60;12.03;;;;;;;0.50;72.02;97184.11;118763;1150;65116;-77
2021/01/25 00:28:30;;;;;;;21.95;12.50;;;;;;;0.50;72.07;97179.73;119192;1150;65168;-77
2021/01/25 00:30:57;;;;;;;18.85;11.70;;;;;;;0.52;72.28;97184.88;119158;1151;65123;-77
2021/01/25 00:33:25;;;;;;;18.90;11.00;;;;;;;0.49;71.78;97178.02;119255;1150;65689;-76
2021/01/25 00:35:51;;;;;;;17.87;10.60;;;;;;;0.48;71.60;97178.12;118885;1150;65086;-77
2021/01/25 00:38:17;;;;;;;17.27;9.67;;;;;;;0.46;71.59;97175.58;119054;1150;65149;-74
2021/01/25 00:40:44;;;;;;;17.13;9.47;;;;;;;0.46;71.50;97164.26;118870;1150;65114;-77
2021/01/25 00:43:10;;;;;;;21.67;11.00;;;;;;;0.46;72.04;97166.88;118945;1149;65143;-76
2021/01/25 00:45:36;;;;;;;22.60;12.00;;;;;;;0.47;71.69;97164.16;118996;1150;65095;-77
2021/01/25 00:48:03;;;;;;;15.63;9.40;;;;;;;0.48;71.63;97159.78;119068;1150;65123;-77
2021/01/25 00:50:30;;;;;;;14.93;8.43;;;;;;;0.47;71.49;97164.16;118873;1150;65059;-77
2021/01/25 00:52:56;;;;;;;16.20;8.67;;;;;;;0.47;72.00;97164.16;118461;1151;65623;-77
2021/01/25 00:55:22;;;;;;;13.62;7.50;;;;;;;0.46;71.60;97165.09;118736;1150;65118;-78
2021/01/25 00:57:48;;;;;;;13.40;7.53;;;;;;;0.45;71.36;97166.04;119066;1150;65705;-77
2021/01/25 01:00:17;;;;;;;17.20;8.87;;;;;;;0.44;71.46;97164.33;119031;1151;65091;-76
2021/01/25 01:02:43;;;;;;;19.80;13.50;;;;;;;0.43;71.42;97167.89;118685;1149;65117;-76
2021/01/25 01:05:10;;;;;;;15.83;10.57;;;;;;;0.43;71.94;97171.35;118998;1150;65095;-77
2021/01/25 01:07:37;;;;;;;19.37;10.53;;;;;;;0.42;71.58;97174.91;119111;1149;65120;-77
2021/01/25 01:10:05;;;;;;;15.20;9.80;;;;;;;0.41;71.63;97167.96;118906;1150;65204;-76
2021/01/25 01:12:31;;;;;;;19.97;10.97;;;;;;;0.45;72.01;97173.91;118741;1150;65098;-77
2021/01/25 01:14:58;;;;;;;22.60;12.33;;;;;;;0.49;71.68;97166.70;119220;1151;65213;-76
2021/01/25 01:17:24;;;;;;;19.53;11.43;;;;;;;0.50;72.31;97168.38;119252;1150;65056;-77
2021/01/25 01:19:50;;;;;;;16.70;10.13;;;;;;;0.51;71.42;97159.61;119224;1151;65220;-76
2021/01/25 01:22:16;;;;;;;16.33;10.43;;;;;;;0.47;71.44;97161.53;118628;1149;65378;-77
2021/01/25 01:24:43;;;;;;;17.57;10.43;;;;;;;0.42;72.04;97166.19;118715;1150;65118;-77
2021/01/25 01:27:09;;;;;;;21.17;13.33;;;;;;;0.38;71.80;97165.52;118665;1149;65436;-73
2021/01/25 01:29:35;;;;;;;31.47;14.80;;;;;;;0.39;71.42;97163.73;118688;1150;65108;-77
2021/01/25 01:32:02;;;;;;;24.67;13.47;;;;;;;0.40;71.89;97157.59;118623;1150;65114;-77
2021/01/25 01:34:28;;;;;;;21.20;12.60;;;;;;;0.41;71.35;97154.02;118625;1150;65108;-76
2021/01/25 01:36:54;;;;;;;18.93;11.17;;;;;;;0.40;71.17;97158.42;118649;1151;65223;-77
2021/01/25 01:39:21;;;;;;;21.40;11.80;;;;;;;0.38;71.56;97149.80;118722;1150;65121;-78
2021/01/25 01:41:47;;;;;;;24.47;12.60;;;;;;;0.41;71.81;97157.48;118725;1150;65229;-77
2021/01/25 01:44:13;;;;;;;21.70;13.00;;;;;;;0.41;72.32;97160.10;119116;1150;65121;-79
2021/01/25 01:46:42;;;;;;;21.60;11.80;;;;;;;0.41;71.94;97157.48;119289;1150;65149;-76
2021/01/25 01:49:13;;;;;;;22.20;11.83;;;;;;;0.42;71.50;97145.22;119132;1150;65121;-76
2021/01/25 01:51:40;;;;;;;18.20;10.00;;;;;;;0.43;71.83;97147.77;119240;1150;65162;-76
2021/01/25 01:54:07;;;;;;;16.07;9.27;;;;;;;0.44;71.65;97149.45;119284;1151;65062;-77
2021/01/25 01:56:35;;;;;;;14.40;8.95;;;;;;;0.43;71.52;97147.77;119260;1149;65114;-77
2021/01/25 01:59:03;;;;;;;15.80;9.95;;;;;;;0.43;71.62;97147.77;119237;1150;65245;-77
2021/01/25 02:01:29;;;;;;;16.37;9.87;;;;;;;0.42;72.13;97146.09;119252;1150;65258;-76
2021/01/25 02:03:57;;;;;;;14.33;9.17;;;;;;;0.44;71.56;97151.23;119276;1150;65104;-76
2021/01/25 02:06:26;;;;;;;13.83;9.50;;;;;;;0.43;71.37;97145.15;119254;1150;65114;-76
2021/01/25 02:08:53;;;;;;;15.47;10.23;;;;;;;0.43;71.56;97144.31;118824;1149;65607;-76
2021/01/25 02:11:19;;;;;;;17.27;11.13;;;;;;;0.43;71.70;97149.55;118604;1151;65153;-77
2021/01/25 02:13:48;;;;;;;16.53;10.73;;;;;;;0.40;72.11;97147.95;118739;1150;65089;-77
2021/01/25 02:16:14;;;;;;;18.30;11.33;;;;;;;0.37;72.25;97157.73;118955;1150;65653;-75
2021/01/25 02:18:41;;;;;;;18.17;11.70;;;;;;;0.36;72.37;97159.52;118642;1150;65185;-78
2021/01/25 02:21:12;;;;;;;16.60;11.83;;;;;;;0.34;72.46;97153.54;118955;1150;65095;-77
2021/01/25 02:24:19;;;;;;;21.07;12.63;;;;;;;0.34;72.35;97156.16;118927;1150;65230;-76
2021/01/25 02:27:24;;;;;;;17.93;11.53;;;;;;;0.31;72.40;97164.16;119293;1149;65223;-78
2021/01/25 02:29:50;;;;;;;22.63;12.33;;;;;;;0.25;72.42;97164.51;119081;1151;65127;-75
2021/01/25 02:32:17;;;;;;;17.93;11.97;;;;;;;0.19;73.30;97163.07;119232;1150;65219;-78
2021/01/25 02:34:44;;;;;;;18.60;12.37;;;;;;;0.16;72.93;97168.48;119000;1150;65108;-77
2021/01/25 02:37:10;;;;;;;17.93;12.20;;;;;;;0.13;73.63;97166.03;118835;1151;65261;-76
2021/01/25 02:39:38;;;;;;;17.80;12.00;;;;;;;0.12;73.81;97166.11;119219;1150;65031;-77
2021/01/25 02:42:06;;;;;;;17.77;12.17;;;;;;;0.09;73.60;97161.04;119193;1150;65100;-75
2021/01/25 02:44:34;;;;;;;17.20;12.00;;;;;;;0.06;73.42;97164.67;119305;1150;65111;-77
2021/01/25 02:47:00;;;;;;;20.83;12.10;;;;;;;0.01;73.46;97164.07;119226;1149;65125;-75
2021/01/25 02:49:27;;;;;;;21.13;12.90;;;;;;;0.01;73.61;97171.92;118852;1149;65101;-77
2021/01/25 02:51:53;;;;;;;21.70;13.95;;;;;;;0.02;73.16;97168.37;119074;1150;65121;-77
2021/01/25 02:54:19;;;;;;;22.03;14.47;;;;;;;0.05;73.81;97183.07;119186;1149;65127;-77
2021/01/25 02:56:48;;;;;;;22.10;14.83;;;;;;;0.03;73.91;97172.70;119203;1150;65094;-78
2021/01/25 02:59:15;;;;;;;24.17;14.70;;;;;;;0.04;73.52;97179.61;118886;1149;65091;-77
2021/01/25 03:01:45;;;;;;;27.50;16.03;;;;;;;0.05;73.43;97185.69;118786;1150;65127;-76
2021/01/25 03:04:13;;;;;;;23.27;15.27;;;;;;;0.08;73.31;97185.52;119282;1150;65156;-76
2021/01/25 03:06:42;;;;;;;24.97;14.67;;;;;;;0.09;74.02;97192.47;119233;1150;65143;-78
2021/01/25 03:09:08;;;;;;;22.47;14.43;;;;;;;0.07;73.45;97187.30;119248;1150;65065;-77
2021/01/25 03:11:39;;;;;;;25.10;15.73;;;;;;;0.07;73.50;97183.84;119265;1150;65115;-76
2021/01/25 03:14:10;;;;;;;22.40;14.93;;;;;;;0.06;73.37;97187.40;119140;1149;65130;-76
2021/01/25 03:16:37;;;;;;;22.53;16.27;;;;;;;0.03;73.80;97185.79;119146;1150;65134;-76
2021/01/25 03:19:04;;;;;;;25.67;17.43;;;;;;;0.04;73.45;97182.23;118951;1149;65066;-76
2021/01/25 03:21:34;;;;;;;20.33;16.00;;;;;;;0.03;73.18;97184.92;118981;1149;65114;-75
2021/01/25 03:24:03;;;;;;;22.23;15.17;;;;;;;-0.01;73.93;97189.48;119259;1150;65031;-78
2021/01/25 03:26:30;;;;;;;24.13;16.70;;;;;;;-0.02;73.75;97186.03;119274;1149;65506;-76
2021/01/25 03:28:56;;;;;;;21.13;14.00;;;;;;;0.01;73.92;97189.42;119263;1149;65108;-77
2021/01/25 03:31:22;;;;;;;21.77;14.90;;;;;;;0.01;74.08;97182.41;119016;1149;65098;-78
2021/01/25 03:33:49;;;;;;;25.60;14.00;;;;;;;0.02;73.77;97196.33;119159;1150;65127;-76
2021/01/25 03:36:15;;;;;;;20.13;13.63;;;;;;;0.03;73.87;97195.39;118625;1151;65088;-78
2021/01/25 03:38:42;;;;;;;26.50;16.10;;;;;;;0.02;73.54;97199.80;118702;1150;65274;-77
2021/01/25 03:41:08;;;;;;;27.10;18.53;;;;;;;0.03;73.58;97200.63;118691;1149;65095;-76
2021/01/25 03:43:35;;;;;;;30.30;19.33;;;;;;;0.01;73.47;97203.35;118927;1150;65220;-78
2021/01/25 03:46:01;;;;;;;27.07;18.70;;;;;;;-0.03;74.03;97202.68;119118;1150;65123;-76
2021/01/25 03:48:27;;;;;;;21.30;16.43;;;;;;;-0.03;73.24;97210.53;118763;1150;65184;-77
2021/01/25 03:50:54;;;;;;;22.63;15.13;;;;;;;-0.04;73.94;97208.83;118795;1149;65311;-76
2021/01/25 03:53:20;;;;;;;21.53;14.40;;;;;;;-0.05;73.74;97209.77;119244;1150;65054;-77
2021/01/25 03:55:46;;;;;;;22.63;15.93;;;;;;;-0.07;73.20;97205.53;119198;1149;65114;-77
2021/01/25 03:58:13;;;;;;;25.87;16.00;;;;;;;-0.05;74.07;97201.07;119288;1149;65114;-76
2021/01/25 04:00:39;;;;;;;25.40;15.70;;;;;;;-0.05;73.88;97201.07;118924;1149;65111;-78
2021/01/25 04:03:06;;;;;;;23.97;14.60;;;;;;;-0.05;73.59;97201.07;119173;1150;65210;-76
2021/01/25 04:05:32;;;;;;;24.07;13.67;;;;;;;-0.06;73.93;97200.20;119182;1150;65161;-76
2021/01/25 04:07:58;;;;;;;21.70;13.60;;;;;;;-0.06;73.86;97202.81;119248;1150;65101;-77
2021/01/25 04:10:25;;;;;;;20.20;15.23;;;;;;;-0.02;73.89;97198.28;119315;1150;65121;-78
2021/01/25 04:12:51;;;;;;;25.80;15.50;;;;;;;-0.01;73.20;97199.96;119227;1150;65072;-77
2021/01/25 04:15:18;;;;;;;26.17;16.53;;;;;;;-0.02;74.00;97201.73;119241;1149;65644;-77
2021/01/25 04:17:44;;;;;;;25.60;17.13;;;;;;;-0.03;73.28;97199.19;119241;1150;65091;-78
2021/01/25 04:20:11;;;;;;;27.30;19.40;;;;;;;-0.01;73.76;97198.19;119213;1150;65117;-76
2021/01/25 04:22:37;;;;;;;32.15;20.90;;;;;;;-0.02;73.45;97193.05;119261;1150;65097;-79
2021/01/25 04:25:06;;;;;;;30.97;20.47;;;;;;;-0.06;73.85;97194.96;119212;1151;65127;-77
2021/01/25 04:27:33;;;;;;;28.77;19.53;;;;;;;-0.07;73.42;97195.91;119303;1150;65117;-76
2021/01/25 04:30:00;;;;;;;32.73;20.07;;;;;;;-0.11;73.36;97196.97;119281;1149;65229;-76
2021/01/25 04:32:27;;;;;;;29.77;19.47;;;;;;;-0.14;73.95;97199.77;119278;1150;65140;-77
2021/01/25 04:34:53;;;;;;;32.33;22.03;;;;;;;-0.14;73.60;97198.92;119236;1149;65142;-77
2021/01/25 04:37:20;;;;;;;28.50;19.97;;;;;;;-0.14;74.08;97198.92;119214;1149;65116;-77
2021/01/25 04:39:47;;;;;;;30.55;19.15;;;;;;;-0.15;73.78;97207.72;119239;1150;65491;-76
2021/01/25 04:42:13;;;;;;;30.30;19.45;;;;;;;-0.17;74.03;97206.94;119188;1150;65593;-77
2021/01/25 04:44:40;;;;;;;30.97;19.40;;;;;;;-0.18;73.68;97208.72;118700;1150;65086;-78
2021/01/25 04:47:08;;;;;;;33.97;20.87;;;;;;;-0.21;74.30;97198.41;118806;1149;65103;-76
2021/01/25 04:49:36;;;;;;;29.90;20.00;;;;;;;-0.25;73.90;97199.48;118974;1150;65188;-76
2021/01/25 04:52:03;;;;;;;28.67;20.43;;;;;;;-0.27;73.83;97199.55;118720;1150;65270;-77
2021/01/25 04:54:31;;;;;;;25.20;17.90;;;;;;;-0.30;73.76;97197.10;118860;1150;65135;-77
2021/01/25 04:56:59;;;;;;;27.80;19.47;;;;;;;-0.30;74.50;97191.03;118691;1150;65073;-76
2021/01/25 04:59:27;;;;;;;27.83;19.60;;;;;;;-0.31;74.15;97190.19;118902;1149;65120;-78
2021/01/25 05:01:54;;;;;;;33.87;22.93;;;;;;;-0.33;74.96;97186.80;119045;1150;65096;-75
2021/01/25 05:04:20;;;;;;;32.87;22.37;;;;;;;-0.32;74.58;97182.41;119279;1149;65172;-77
2021/01/25 05:06:46;;;;;;;27.75;18.20;;;;;;;-0.37;74.90;97184.41;118938;1150;65149;-78
2021/01/25 05:09:13;;;;;;;28.35;18.90;;;;;;;-0.41;74.94;97198.59;118980;1150;65215;-77
2021/01/25 05:11:39;;;;;;;27.50;18.87;;;;;;;-0.41;74.53;97195.98;119004;1150;65153;-76
2021/01/25 05:14:06;;;;;;;27.10;18.10;;;;;;;-0.42;74.33;97199.51;118705;1149;65215;-78
2021/01/25 05:16:33;;;;;;;23.57;15.33;;;;;;;-0.43;75.22;97193.44;119161;1150;66073;-76
2021/01/25 05:19:03;;;;;;;24.30;16.00;;;;;;;-0.42;74.53;97199.51;118945;1150;65091;-75
2021/01/25 05:21:41;;;;;;;;;;;;;;;-0.40;74.94;97195.89;119277;1149;65118;-76
2021/01/25 05:24:10;;;;;;;25.90;16.73;;;;;;;-0.39;75.42;97192.36;119274;1150;65117;-76
2021/01/25 05:26:50;;;;;;;27.02;15.60;;;;;;;-0.40;74.65;97192.43;119282;1150;65121;-78
2021/01/25 05:29:27;;;;;;;28.67;14.57;;;;;;;-0.42;74.59;97191.66;119251;1149;65094;-75
2021/01/25 05:31:55;;;;;;;25.47;16.83;;;;;;;-0.43;74.89;97196.05;119271;1150;65114;-77
2021/01/25 05:34:22;;;;;;;27.03;16.07;;;;;;;-0.42;75.19;97189.91;119303;1149;65123;-78
2021/01/25 05:36:49;;;;;;;23.83;16.27;;;;;;;-0.40;75.09;97195.89;119274;1150;65117;-77
2021/01/25 05:39:18;;;;;;;27.00;18.00;;;;;;;-0.38;75.24;97198.44;119232;1150;65188;-77
2021/01/25 05:41:59;;;;;;;30.63;18.10;;;;;;;-0.37;75.45;97198.38;118781;1150;65191;-76
2021/01/25 05:44:26;;;;;;;27.60;17.63;;;;;;;-0.35;75.14;97203.50;119038;1150;65088;-77
2021/01/25 05:47:07;;;;;;;31.47;20.33;;;;;;;-0.34;75.75;97199.95;118974;1150;65161;-76
2021/01/25 05:49:34;;;;;;;31.73;20.10;;;;;;;-0.29;75.32;97211.03;119163;1150;65134;-76
2021/01/25 05:52:01;;;;;;;34.83;21.17;;;;;;;-0.28;75.00;97207.50;119161;1150;65328;-77
2021/01/25 05:54:27;;;;;;;33.00;22.67;;;;;;;-0.28;75.42;97205.73;119078;1149;65150;-76
2021/01/25 05:56:54;;;;;;;33.55;22.50;;;;;;;-0.28;75.26;97208.34;119127;1150;65703;-77
2021/01/25 05:59:21;;;;;;;37.83;24.07;;;;;;;-0.27;75.15;97222.27;119287;1149;65098;-77
2021/01/25 06:01:49;;;;;;;34.73;23.10;;;;;;;-0.26;75.50;97219.59;119235;1149;65115;-76
2021/01/25 06:04:18;;;;;;;35.10;22.40;;;;;;;-0.25;75.52;97230.91;119245;1150;65087;-76
2021/01/25 06:06:56;;;;;;;38.48;24.20;;;;;;;-0.25;75.45;97220.43;119232;1150;65200;-78
2021/01/25 06:09:40;;;;;;;34.20;22.27;;;;;;;-0.25;75.23;97220.43;119220;1150;65125;-77
2021/01/25 06:12:07;;;;;;;37.80;24.03;;;;;;;-0.23;75.24;97216.80;119110;1149;65251;-77
2021/01/25 06:14:40;;;;;;;31.75;23.00;;;;;;;-0.20;75.61;97223.66;119132;1149;65162;-76
2021/01/25 06:17:11;;;;;;;45.50;25.23;;;;;;;-0.18;75.98;97210.50;119226;1150;65262;-78
2021/01/25 06:19:39;;;;;;;42.63;24.23;;;;;;;-0.17;75.82;97220.88;119275;1150;65244;-76
2021/01/25 06:22:07;;;;;;;42.53;23.13;;;;;;;-0.19;75.25;97227.11;118746;1150;65143;-76
2021/01/25 06:24:35;;;;;;;39.40;23.73;;;;;;;-0.22;75.75;97231.58;118898;1150;65129;-75
2021/01/25 06:27:02;;;;;;;37.90;23.40;;;;;;;-0.21;75.26;97240.30;119218;1149;65028;-76
2021/01/25 06:29:30;;;;;;;40.60;25.47;;;;;;;-0.20;75.35;97244.59;119185;1150;65152;-76
2021/01/25 06:31:59;;;;;;;46.47;24.17;;;;;;;-0.20;76.16;97243.76;119091;1149;65142;-77
2021/01/25 06:34:26;;;;;;;39.67;22.67;;;;;;;-0.22;75.72;97247.28;119271;1150;65167;-75
2021/01/25 06:36:53;;;;;;;36.43;21.30;;;;;;;-0.21;75.88;97250.77;119219;1150;65115;-77
2021/01/25 06:39:24;;;;;;;39.10;23.90;;;;;;;-0.21;76.20;97250.77;118997;1149;65025;-77
2021/01/25 06:42:00;;;;;;;33.13;21.50;;;;;;;-0.21;75.94;97250.77;119026;1149;65168;-76
2021/01/25 06:44:29;;;;;;;32.77;20.83;;;;;;;-0.18;76.14;97252.39;119267;1149;65510;-78
2021/01/25 06:46:58;;;;;;;33.30;20.63;;;;;;;-0.14;76.37;97253.91;119227;1150;65120;-78
2021/01/25 06:49:25;;;;;;;34.10;21.93;;;;;;;-0.13;75.63;97251.22;119256;1150;65223;-76
2021/01/25 06:51:54;;;;;;;35.03;22.67;;;;;;;-0.11;75.62;97243.27;119239;1150;65136;-77
2021/01/25 06:54:23;;;;;;;35.37;22.60;;;;;;;-0.10;75.51;97242.36;119293;1150;65165;-78
2021/01/25 06:56:59;;;;;;;35.27;22.70;;;;;;;-0.07;76.18;97247.43;119252;1151;65054;-77
2021/01/25 06:59:29;;;;;;;36.97;22.67;;;;;;;-0.04;75.53;97244.64;118798;1149;65140;-78
2021/01/25 07:01:56;;;;;;;35.07;22.50;;;;;;;-0.04;75.43;97257.73;118866;1150;65134;-79
2021/01/25 07:04:25;;;;;;;36.10;24.25;;;;;;;-0.06;76.16;97249.95;118724;1150;65171;-76
2021/01/25 07:06:56;;;;;;;35.30;22.30;;;;;;;-0.04;75.57;97249.88;118833;1150;65079;-76
2021/01/25 07:09:25;;;;;;;36.07;23.93;;;;;;;-0.04;75.58;97248.11;119156;1150;65147;-78
2021/01/25 07:11:52;;;;;;;35.07;23.33;;;;;;;-0.01;75.93;97252.33;118851;1150;65484;-78
2021/01/25 07:14:24;;;;;;;37.70;24.23;;;;;;;0.01;76.10;97249.65;119130;1150;65200;-76
2021/01/25 07:16:55;;;;;;;40.13;27.30;;;;;;;0.01;75.38;97254.89;118834;1149;65111;-77
2021/01/25 07:19:23;;;;;;;40.60;25.93;;;;;;;0.01;75.38;97255.73;119236;1150;65156;-77
2021/01/25 07:21:51;;;;;;;42.70;29.67;;;;;;;0.03;75.98;97250.39;118951;1150;65159;-77
2021/01/25 07:24:25;;;;;;;39.90;27.27;;;;;;;0.03;75.90;97248.64;118921;1150;65554;-78
2021/01/25 07:26:54;;;;;;;43.67;27.97;;;;;;;0.04;76.19;97258.18;118798;1150;65215;-78
2021/01/25 07:29:21;;;;;;;47.53;30.13;;;;;;;0.04;76.17;97258.18;119270;1150;65143;-77
2021/01/25 07:31:49;;;;;;;45.25;29.95;;;;;;;0.05;76.33;97254.62;119098;1150;65104;-76
2021/01/25 07:34:16;;;;;;;50.30;31.90;;;;;;;0.08;75.64;97257.11;118703;1150;65217;-76
2021/01/25 07:36:43;;;;;;;55.47;32.33;;;;;;;0.09;76.06;97257.95;118757;1150;65228;-76
2021/01/25 07:39:12;;;;;;;55.00;33.30;;;;;;;0.10;75.87;97259.63;119254;1151;65069;-79
2021/01/25 07:41:40;;;;;;;66.05;36.48;;;;;;;0.12;76.43;97263.86;119054;1150;65073;-77
2021/01/25 07:44:08;;;;;;;55.93;35.73;;;;;;;0.18;76.34;97262.69;119204;1150;65383;-77
2021/01/25 07:46:35;;;;;;;65.67;38.93;;;;;;;0.21;75.81;97262.52;119249;1150;65114;-76
2021/01/25 07:49:02;;;;;;;59.73;36.70;;;;;;;0.22;75.71;97266.84;118827;1150;65114;-76
2021/01/25 07:51:33;;;;;;;60.77;38.93;;;;;;;0.25;76.33;97271.91;118700;1149;65111;-77
2021/01/25 07:54:01;;;;;;;57.70;34.00;;;;;;;0.30;76.41;97272.52;119143;1150;65134;-77
2021/01/25 07:56:29;;;;;;;54.77;32.57;;;;;;;0.30;75.98;97272.52;118828;1150;65121;-78
2021/01/25 07:59:09;;;;;;;54.60;32.47;;;;;;;0.35;76.07;97270.50;118984;1149;65118;-76
2021/01/25 08:01:45;;;;;;;46.80;31.27;;;;;;;0.40;76.30;97270.27;119094;1150;65137;-78
2021/01/25 08:04:13;;;;;;;52.90;34.35;;;;;;;0.42;76.01;97276.24;119267;1149;65124;-77
2021/01/25 08:06:40;;;;;;;49.25;30.55;;;;;;;0.47;76.18;97278.63;119131;1150;65548;-77
2021/01/25 08:09:11;;;;;;;48.30;30.97;;;;;;;0.50;75.80;97275.83;118689;1151;65277;-78
2021/01/25 08:11:40;;;;;;;42.10;30.60;;;;;;;0.53;76.37;97280.94;118726;1150;65148;-76
2021/01/25 08:14:31;;;;;;;46.10;32.43;;;;;;;0.57;76.66;97271.95;118703;1150;65189;-76
2021/01/25 08:17:03;;;;;;;42.43;31.03;;;;;;;0.62;76.52;97280.42;118852;1150;65076;-77
2021/01/25 08:19:47;;;;;;;37.97;26.93;;;;;;;0.63;75.99;97275.11;118930;1150;65104;-76
2021/01/25 08:22:22;;;;;;;35.13;24.77;;;;;;;0.64;76.10;97279.41;119188;1149;65573;-76
2021/01/25 08:25:01;;;;;;;34.27;23.80;;;;;;;0.64;75.91;97271.55;119297;1150;65176;-77
2021/01/25 08:27:31;;;;;;;32.98;24.70;;;;;;;0.67;75.77;97272.31;119316;1150;65146;-76
2021/01/25 08:30:06;;;;;;;30.15;21.60;;;;;;;0.71;76.07;97284.30;119297;1150;65117;-79
2021/01/25 08:32:47;;;;;;;34.50;23.45;;;;;;;0.67;75.66;97286.26;119129;1149;65121;-75
2021/01/25 08:35:27;;;;;;;30.87;23.27;;;;;;;0.69;76.34;97280.95;119221;1150;65104;-75
2021/01/25 08:38:24;;;;;;;64.50;35.07;;;;;;;0.69;75.98;97281.78;118711;1149;65226;-77
2021/01/25 08:40:52;;;;;;;66.40;36.03;;;;;;;0.69;76.67;97291.44;118664;1151;65123;-77
2021/01/25 08:43:23;;;;;;;43.10;25.83;;;;;;;0.66;76.07;97287.20;118717;1150;65031;-78
2021/01/25 08:45:51;;;;;;;41.53;25.90;;;;;;;0.65;76.67;97291.58;118890;1151;65127;-72
2021/01/25 08:48:26;;;;;;;43.33;26.93;;;;;;;0.67;77.14;97288.88;118678;1150;65156;-78
2021/01/25 08:50:53;;;;;;;41.90;26.43;;;;;;;0.68;77.44;97284.48;119161;1150;65132;-76
2021/01/25 08:53:30;;;;;;;40.05;26.40;;;;;;;0.68;76.79;97289.72;118742;1151;65186;-76
2021/01/25 08:55:57;;;;;;;41.20;27.10;;;;;;;0.67;77.78;97288.05;119168;1150;65121;-77
2021/01/25 08:58:30;;;;;;;43.80;27.75;;;;;;;0.67;77.71;97288.88;118767;1149;65120;-77
2021/01/25 09:00:58;;;;;;;40.27;27.23;;;;;;;0.70;78.06;97288.70;119019;1150;65130;-76
2021/01/25 09:03:25;;;;;;;43.30;28.50;;;;;;;0.71;77.66;97287.80;118893;1150;65198;-76
2021/01/25 09:05:53;;;;;;;39.87;26.63;;;;;;;0.75;77.61;97291.92;118877;1150;65187;-77
2021/01/25 09:08:21;;;;;;;46.90;29.53;;;;;;;0.74;77.86;97300.73;118739;1149;65600;-78
2021/01/25 09:10:48;;;;;;;44.37;30.00;;;;;;;0.75;77.49;97291.09;119016;1150;65095;-76
2021/01/25 09:13:15;;;;;;;39.87;26.93;;;;;;;0.79;77.94;97292.59;118935;1149;65242;-76
2021/01/25 09:15:41;;;;;;;37.30;25.85;;;;;;;0.83;77.92;97294.13;119234;1151;65564;-78
2021/01/25 09:18:09;;;;;;;40.93;25.33;;;;;;;0.88;77.84;97294.73;118799;1149;65196;-77
2021/01/25 09:20:36;;;;;;;38.70;26.23;;;;;;;0.88;77.44;97305.22;118678;1150;65124;-78
2021/01/25 09:23:02;;;;;;;40.90;27.70;;;;;;;0.86;78.01;97304.45;118676;1150;65148;-73
2021/01/25 09:25:31;;;;;;;40.23;28.10;;;;;;;0.86;77.64;97312.31;118594;1150;65276;-77
2021/01/25 09:27:57;;;;;;;39.53;27.23;;;;;;;0.88;78.23;97313.08;118909;1150;65127;-78
2021/01/25 09:30:26;;;;;;;41.80;28.73;;;;;;;0.90;77.55;97305.14;119228;1150;65623;-78
2021/01/25 09:32:55;;;;;;;39.13;27.27;;;;;;;0.91;77.69;97318.16;119273;1151;65179;-78
2021/01/25 09:35:23;;;;;;;36.07;25.03;;;;;;;0.93;77.82;97308.43;118977;1150;65091;-78
2021/01/25 09:37:50;;;;;;;37.90;27.40;;;;;;;0.90;78.16;97311.23;119213;1150;65508;-77
2021/01/25 09:40:16;;;;;;;40.37;28.40;;;;;;;0.92;77.76;97305.88;119282;1149;65031;-78
2021/01/25 09:42:43;;;;;;;40.33;27.93;;;;;;;0.95;78.21;97303.95;119102;1150;65143;-77
2021/01/25 09:45:15;;;;;;;38.03;25.63;;;;;;;0.97;77.69;97306.47;119173;1149;65110;-77
2021/01/25 09:47:42;;;;;;;41.90;29.35;;;;;;;0.97;78.30;97306.47;119006;1150;65187;-78
2021/01/25 09:50:12;;;;;;;39.20;25.60;;;;;;;0.93;78.44;97316.30;118688;1150;65223;-78
2021/01/25 09:52:40;;;;;;;49.90;30.07;;;;;;;0.90;78.36;97311.23;119088;1150;65325;-75
2021/01/25 09:55:07;;;;;;;37.77;26.40;;;;;;;0.94;78.18;97317.14;119113;1150;65223;-77
2021/01/25 09:57:34;;;;;;;38.65;26.55;;;;;;;0.96;78.28;97317.91;119258;1150;65159;-77
2021/01/25 10:00:00;;;;;;;40.33;26.80;;;;;;;1.01;78.74;97315.88;119265;1150;65020;-77
2021/01/25 10:02:27;;;;;;;34.90;24.80;;;;;;;1.06;78.13;97316.47;119265;1150;65274;-76
2021/01/25 10:04:53;;;;;;;36.73;25.53;;;;;;;1.05;78.46;97315.63;119255;1150;65200;-75
2021/01/25 10:07:20;;;;;;;43.40;30.07;;;;;;;1.05;78.11;97325.25;119247;1150;65129;-76
2021/01/25 10:09:46;;;;;;;38.13;26.40;;;;;;;1.03;78.01;97327.98;119274;1150;65127;-76
2021/01/25 10:12:12;;;;;;;36.67;25.73;;;;;;;1.02;78.20;97328.05;119134;1150;65117;-78
2021/01/25 10:14:39;;;;;;;37.07;26.43;;;;;;;1.05;78.15;97322.62;119166;1149;66291;-78
2021/01/25 10:17:05;;;;;;;34.40;24.60;;;;;;;1.09;78.19;97318.92;119240;1150;65118;-76
2021/01/25 10:19:31;;;;;;;33.03;25.13;;;;;;;1.08;78.46;97323.33;119077;1150;65142;-77
2021/01/25 10:21:58;;;;;;;34.93;24.43;;;;;;;1.09;77.99;97325.00;119217;1150;65121;-78
2021/01/25 10:24:24;;;;;;;35.83;24.80;;;;;;;1.13;78.20;97323.05;119256;1150;65123;-76
2021/01/25 10:26:50;;;;;;;31.97;23.20;;;;;;;1.13;78.21;97319.58;119228;1150;65551;-76
2021/01/25 10:29:17;;;;;;;36.00;25.10;;;;;;;1.09;78.34;97325.00;118927;1150;65130;-78
2021/01/25 10:31:44;;;;;;;34.90;23.90;;;;;;;1.09;77.81;97334.66;119238;1150;65124;-75
2021/01/25 10:34:10;;;;;;;37.80;25.90;;;;;;;1.05;78.69;97335.74;119230;1151;65233;-75
2021/01/25 10:36:36;;;;;;;37.20;25.07;;;;;;;1.07;78.59;97342.59;119190;1151;65123;-76
2021/01/25 10:39:03;;;;;;;32.60;24.25;;;;;;;1.04;78.65;97345.39;119015;1150;65166;-77
2021/01/25 10:41:30;;;;;;;30.00;22.90;;;;;;;1.01;78.62;97339.48;118776;1149;65116;-77
2021/01/25 10:43:56;;;;;;;33.20;23.53;;;;;;;1.00;78.96;97340.39;119072;1150;65101;-78
2021/01/25 10:46:22;;;;;;;34.13;23.83;;;;;;;1.00;78.92;97357.01;119158;1150;65169;-79
2021/01/25 10:48:49;;;;;;;36.55;24.45;;;;;;;0.97;78.22;97349.28;119243;1150;65102;-79
2021/01/25 10:51:15;;;;;;;28.97;21.43;;;;;;;0.97;78.36;97341.41;119246;1150;65230;-76
2021/01/25 10:53:42;;;;;;;31.85;21.95;;;;;;;0.93;78.97;97346.93;119202;1151;65101;-79
2021/01/25 10:56:08;;;;;;;35.30;25.03;;;;;;;0.92;79.05;97339.97;119249;1150;65246;-78
2021/01/25 10:58:37;;;;;;;37.08;25.48;;;;;;;0.96;78.94;97352.00;119215;1150;65053;-79
2021/01/25 11:01:04;;;;;;;34.07;24.33;;;;;;;0.91;78.96;97347.00;119235;1151;65095;-77
2021/01/25 11:03:30;;;;;;;36.63;26.13;;;;;;;0.86;79.28;97355.11;119229;1150;65633;-77
2021/01/25 11:05:56;;;;;;;30.57;24.07;;;;;;;0.86;79.67;97349.87;119136;1150;65169;-79
2021/01/25 11:08:23;;;;;;;32.50;22.93;;;;;;;0.86;79.15;97346.41;118938;1149;65154;-79
2021/01/25 11:10:49;;;;;;;27.97;22.07;;;;;;;0.86;78.93;97346.41;119079;1150;65066;-77
2021/01/25 11:13:15;;;;;;;33.17;23.57;;;;;;;0.86;79.17;97352.48;119250;1150;65220;-78
2021/01/25 11:15:42;;;;;;;30.77;22.60;;;;;;;0.91;79.06;97356.66;119242;1150;65129;-78
2021/01/25 11:18:09;;;;;;;32.30;22.87;;;;;;;0.95;79.41;97356.41;119304;1150;65097;-76
2021/01/25 11:20:35;;;;;;;29.97;20.93;;;;;;;1.01;78.99;97350.81;119065;1150;65190;-77